sensor_id;sensor_type;location;lat;lon;timestamp;temperature;humidity
68701;DHT22;55682;51.114;5.882;2023-11-21T00:00:49;10.03;85.51
68701;DHT22;55682;51.114;5.882;2023-11-21T00:03:14;10.06;85.45
68701;DHT22;55682;51.114;5.882;2023-11-21T00:05:41;10.11;85.31
68701;DHT22;55682;51.114;5.882;2023-11-21T00:08:07;10.14;85.18
68701;DHT22;55682;51.114;5.882;2023-11-21T00:10:34;10.19;85.15
68701;DHT22;55682;51.114;5.882;2023-11-21T00:13:00;10.23;85.11
68701;DHT22;55682;51.114;5.882;2023-11-21T00:15:28;10.21;85.04
68701;DHT22;55682;51.114;5.882;2023-11-21T00:17:53;10.23;85.08
68701;DHT22;55682;51.114;5.882;2023-11-21T00:20:20;10.23;85.00
68701;DHT22;55682;51.114;5.882;2023-11-21T00:22:46;10.27;84.91
68701;DHT22;55682;51.114;5.882;2023-11-21T00:25:12;10.31;84.83
68701;DHT22;55682;51.114;5.882;2023-11-21T00:27:41;10.33;84.72
68701;DHT22;55682;51.114;5.882;2023-11-21T00:30:07;10.33;84.71
68701;DHT22;55682;51.114;5.882;2023-11-21T00:32:36;10.35;84.74
68701;DHT22;55682;51.114;5.882;2023-11-21T00:35:02;10.40;84.70
68701;DHT22;55682;51.114;5.882;2023-11-21T00:37:28;10.42;84.74
68701;DHT22;55682;51.114;5.882;2023-11-21T00:39:53;10.44;84.75
68701;DHT22;55682;51.114;5.882;2023-11-21T00:42:19;10.49;84.75
68701;DHT22;55682;51.114;5.882;2023-11-21T00:44:44;10.50;84.71
68701;DHT22;55682;51.114;5.882;2023-11-21T00:47:10;10.51;84.68
68701;DHT22;55682;51.114;5.882;2023-11-21T00:49:36;10.53;84.57
68701;DHT22;55682;51.114;5.882;2023-11-21T00:52:02;10.52;84.57
68701;DHT22;55682;51.114;5.882;2023-11-21T00:54:28;10.52;84.50
68701;DHT22;55682;51.114;5.882;2023-11-21T00:56:53;10.51;84.50
68701;DHT22;55682;51.114;5.882;2023-11-21T00:59:19;10.53;84.48
68701;DHT22;55682;51.114;5.882;2023-11-21T01:01:44;10.54;84.27
68701;DHT22;55682;51.114;5.882;2023-11-21T01:04:10;10.52;84.27
68701;DHT22;55682;51.114;5.882;2023-11-21T01:06:36;10.54;84.13
68701;DHT22;55682;51.114;5.882;2023-11-21T01:09:02;10.50;84.00
68701;DHT22;55682;51.114;5.882;2023-11-21T01:11:33;10.46;84.06
68701;DHT22;55682;51.114;5.882;2023-11-21T01:14:01;10.43;83.97
68701;DHT22;55682;51.114;5.882;2023-11-21T01:16:30;10.36;84.59
68701;DHT22;55682;51.114;5.882;2023-11-21T01:18:58;10.35;85.13
68701;DHT22;55682;51.114;5.882;2023-11-21T01:21:25;10.36;85.06
68701;DHT22;55682;51.114;5.882;2023-11-21T01:23:50;10.36;84.95
68701;DHT22;55682;51.114;5.882;2023-11-21T01:26:16;10.39;85.30
68701;DHT22;55682;51.114;5.882;2023-11-21T01:28:42;10.42;85.40
68701;DHT22;55682;51.114;5.882;2023-11-21T01:31:07;10.46;85.35
68701;DHT22;55682;51.114;5.882;2023-11-21T01:33:33;10.45;85.18
68701;DHT22;55682;51.114;5.882;2023-11-21T01:35:58;10.44;85.03
68701;DHT22;55682;51.114;5.882;2023-11-21T01:38:25;10.44;85.11
68701;DHT22;55682;51.114;5.882;2023-11-21T01:40:51;10.43;85.16
68701;DHT22;55682;51.114;5.882;2023-11-21T01:43:17;10.41;84.96
68701;DHT22;55682;51.114;5.882;2023-11-21T01:45:43;10.35;85.09
68701;DHT22;55682;51.114;5.882;2023-11-21T01:48:11;10.33;85.20
68701;DHT22;55682;51.114;5.882;2023-11-21T01:50:38;10.34;85.67
68701;DHT22;55682;51.114;5.882;2023-11-21T01:53:05;10.36;85.91
68701;DHT22;55682;51.114;5.882;2023-11-21T01:55:33;10.38;86.00
68701;DHT22;55682;51.114;5.882;2023-11-21T01:57:59;10.40;85.91
68701;DHT22;55682;51.114;5.882;2023-11-21T02:00:25;10.38;85.77
68701;DHT22;55682;51.114;5.882;2023-11-21T02:02:55;10.37;85.59
68701;DHT22;55682;51.114;5.882;2023-11-21T02:05:20;10.35;85.54
68701;DHT22;55682;51.114;5.882;2023-11-21T02:07:47;10.34;85.89
68701;DHT22;55682;51.114;5.882;2023-11-21T02:10:15;10.33;86.08
68701;DHT22;55682;51.114;5.882;2023-11-21T02:12:42;10.36;86.19
68701;DHT22;55682;51.114;5.882;2023-11-21T02:15:10;10.39;85.93
68701;DHT22;55682;51.114;5.882;2023-11-21T02:17:43;10.39;85.63
68701;DHT22;55682;51.114;5.882;2023-11-21T02:20:17;10.38;85.93
68701;DHT22;55682;51.114;5.882;2023-11-21T02:22:54;10.40;86.19
68701;DHT22;55682;51.114;5.882;2023-11-21T02:25:27;10.41;86.06
68701;DHT22;55682;51.114;5.882;2023-11-21T02:27:56;10.39;86.09
68701;DHT22;55682;51.114;5.882;2023-11-21T02:30:22;10.40;86.22
68701;DHT22;55682;51.114;5.882;2023-11-21T02:32:51;10.39;86.03
68701;DHT22;55682;51.114;5.882;2023-11-21T02:35:22;10.38;85.97
68701;DHT22;55682;51.114;5.882;2023-11-21T02:37:49;10.33;85.94
68701;DHT22;55682;51.114;5.882;2023-11-21T02:40:15;10.28;86.33
68701;DHT22;55682;51.114;5.882;2023-11-21T02:42:49;10.25;86.68
68701;DHT22;55682;51.114;5.882;2023-11-21T02:45:18;10.23;86.95
68701;DHT22;55682;51.114;5.882;2023-11-21T02:47:45;10.23;86.93
68701;DHT22;55682;51.114;5.882;2023-11-21T02:50:10;10.22;86.92
68701;DHT22;55682;51.114;5.882;2023-11-21T02:52:36;10.18;86.96
68701;DHT22;55682;51.114;5.882;2023-11-21T02:55:02;10.16;87.00
68701;DHT22;55682;51.114;5.882;2023-11-21T02:57:28;10.15;87.04
68701;DHT22;55682;51.114;5.882;2023-11-21T02:59:54;10.14;87.04
68701;DHT22;55682;51.114;5.882;2023-11-21T03:02:20;10.15;87.06
68701;DHT22;55682;51.114;5.882;2023-11-21T03:04:46;10.22;86.83
68701;DHT22;55682;51.114;5.882;2023-11-21T03:07:13;10.20;86.70
68701;DHT22;55682;51.114;5.882;2023-11-21T03:09:39;10.19;86.50
68701;DHT22;55682;51.114;5.882;2023-11-21T03:12:05;10.13;86.60
68701;DHT22;55682;51.114;5.882;2023-11-21T03:14:31;10.11;86.75
68701;DHT22;55682;51.114;5.882;2023-11-21T03:16:57;10.07;86.83
68701;DHT22;55682;51.114;5.882;2023-11-21T03:19:23;10.03;86.98
68701;DHT22;55682;51.114;5.882;2023-11-21T03:21:49;10.01;87.12
68701;DHT22;55682;51.114;5.882;2023-11-21T03:24:14;10.03;87.19
68701;DHT22;55682;51.114;5.882;2023-11-21T03:26:45;10.03;87.19
68701;DHT22;55682;51.114;5.882;2023-11-21T03:29:12;10.05;87.28
68701;DHT22;55682;51.114;5.882;2023-11-21T03:31:37;10.08;87.39
68701;DHT22;55682;51.114;5.882;2023-11-21T03:34:03;10.14;87.38
68701;DHT22;55682;51.114;5.882;2023-11-21T03:36:29;10.20;87.30
68701;DHT22;55682;51.114;5.882;2023-11-21T03:38:54;10.25;87.12
68701;DHT22;55682;51.114;5.882;2023-11-21T03:41:21;10.26;86.93
68701;DHT22;55682;51.114;5.882;2023-11-21T03:43:47;10.25;87.00
68701;DHT22;55682;51.114;5.882;2023-11-21T03:46:13;10.27;87.01
68701;DHT22;55682;51.114;5.882;2023-11-21T03:48:39;10.28;87.05
68701;DHT22;55682;51.114;5.882;2023-11-21T03:51:05;10.27;87.25
68701;DHT22;55682;51.114;5.882;2023-11-21T03:53:33;10.29;87.51
68701;DHT22;55682;51.114;5.882;2023-11-21T03:56:02;10.37;87.61
68701;DHT22;55682;51.114;5.882;2023-11-21T03:58:28;10.43;87.63
68701;DHT22;55682;51.114;5.882;2023-11-21T04:00:53;10.52;87.33
68701;DHT22;55682;51.114;5.882;2023-11-21T04:03:19;10.51;86.81
68701;DHT22;55682;51.114;5.882;2023-11-21T04:05:45;10.49;86.53
68701;DHT22;55682;51.114;5.882;2023-11-21T04:08:11;10.42;86.53
68701;DHT22;55682;51.114;5.882;2023-11-21T04:10:36;10.41;86.47
68701;DHT22;55682;51.114;5.882;2023-11-21T04:13:05;10.35;86.64
68701;DHT22;55682;51.114;5.882;2023-11-21T04:15:32;10.33;87.03
68701;DHT22;55682;51.114;5.882;2023-11-21T04:17:58;10.33;87.36
68701;DHT22;55682;51.114;5.882;2023-11-21T04:20:24;10.36;87.39
68701;DHT22;55682;51.114;5.882;2023-11-21T04:22:51;10.38;87.18
68701;DHT22;55682;51.114;5.882;2023-11-21T04:25:17;10.38;87.20
68701;DHT22;55682;51.114;5.882;2023-11-21T04:27:44;10.39;87.09
68701;DHT22;55682;51.114;5.882;2023-11-21T04:30:11;10.39;87.18
68701;DHT22;55682;51.114;5.882;2023-11-21T04:32:37;10.42;87.25
68701;DHT22;55682;51.114;5.882;2023-11-21T04:35:02;10.45;87.35
68701;DHT22;55682;51.114;5.882;2023-11-21T04:37:29;10.50;87.44
68701;DHT22;55682;51.114;5.882;2023-11-21T04:39:55;10.56;87.27
68701;DHT22;55682;51.114;5.882;2023-11-21T04:42:20;10.62;87.02
68701;DHT22;55682;51.114;5.882;2023-11-21T04:44:47;10.67;86.80
68701;DHT22;55682;51.114;5.882;2023-11-21T04:47:12;10.70;86.59
68701;DHT22;55682;51.114;5.882;2023-11-21T04:49:42;10.72;86.22
68701;DHT22;55682;51.114;5.882;2023-11-21T04:52:09;10.72;86.16
68701;DHT22;55682;51.114;5.882;2023-11-21T04:54:35;10.72;86.06
68701;DHT22;55682;51.114;5.882;2023-11-21T04:57:01;10.72;86.12
68701;DHT22;55682;51.114;5.882;2023-11-21T04:59:27;10.70;86.06
68701;DHT22;55682;51.114;5.882;2023-11-21T05:01:53;10.70;86.12
68701;DHT22;55682;51.114;5.882;2023-11-21T05:04:21;10.65;86.17
68701;DHT22;55682;51.114;5.882;2023-11-21T05:06:48;10.59;86.67
68701;DHT22;55682;51.114;5.882;2023-11-21T05:09:13;10.60;87.00
68701;DHT22;55682;51.114;5.882;2023-11-21T05:11:40;10.62;87.21
68701;DHT22;55682;51.114;5.882;2023-11-21T05:14:06;10.65;87.19
68701;DHT22;55682;51.114;5.882;2023-11-21T05:16:32;10.68;87.07
68701;DHT22;55682;51.114;5.882;2023-11-21T05:18:57;10.67;87.09
68701;DHT22;55682;51.114;5.882;2023-11-21T05:21:29;10.68;86.98
68701;DHT22;55682;51.114;5.882;2023-11-21T05:23:56;10.68;86.96
68701;DHT22;55682;51.114;5.882;2023-11-21T05:26:22;10.68;86.94
68701;DHT22;55682;51.114;5.882;2023-11-21T05:28:48;10.73;86.96
68701;DHT22;55682;51.114;5.882;2023-11-21T05:31:13;10.74;86.75
68701;DHT22;55682;51.114;5.882;2023-11-21T05:33:40;10.74;86.70
68701;DHT22;55682;51.114;5.882;2023-11-21T05:36:07;10.72;86.77
68701;DHT22;55682;51.114;5.882;2023-11-21T05:38:35;10.72;86.78
68701;DHT22;55682;51.114;5.882;2023-11-21T05:41:01;10.73;86.86
68701;DHT22;55682;51.114;5.882;2023-11-21T05:43:27;10.75;86.67
68701;DHT22;55682;51.114;5.882;2023-11-21T05:45:55;10.75;86.61
68701;DHT22;55682;51.114;5.882;2023-11-21T05:48:20;10.73;86.72
68701;DHT22;55682;51.114;5.882;2023-11-21T05:50:46;10.75;86.77
68701;DHT22;55682;51.114;5.882;2023-11-21T05:53:12;10.79;86.79
68701;DHT22;55682;51.114;5.882;2023-11-21T05:55:41;10.80;86.67
68701;DHT22;55682;51.114;5.882;2023-11-21T05:58:06;10.81;86.58
68701;DHT22;55682;51.114;5.882;2023-11-21T06:00:33;10.82;86.61
68701;DHT22;55682;51.114;5.882;2023-11-21T06:02:58;10.85;86.48
68701;DHT22;55682;51.114;5.882;2023-11-21T06:05:25;10.90;86.38
68701;DHT22;55682;51.114;5.882;2023-11-21T06:07:52;10.89;86.07
68701;DHT22;55682;51.114;5.882;2023-11-21T06:10:20;10.85;86.12
68701;DHT22;55682;51.114;5.882;2023-11-21T06:12:46;10.83;86.41
68701;DHT22;55682;51.114;5.882;2023-11-21T06:15:12;10.85;86.41
68701;DHT22;55682;51.114;5.882;2023-11-21T06:17:42;10.90;86.39
68701;DHT22;55682;51.114;5.882;2023-11-21T06:20:11;10.94;86.14
68701;DHT22;55682;51.114;5.882;2023-11-21T06:22:45;10.95;86.05
68701;DHT22;55682;51.114;5.882;2023-11-21T06:25:12;10.97;86.07
68701;DHT22;55682;51.114;5.882;2023-11-21T06:27:46;10.97;86.08
68701;DHT22;55682;51.114;5.882;2023-11-21T06:30:14;10.99;85.55
68701;DHT22;55682;51.114;5.882;2023-11-21T06:32:41;10.94;85.67
68701;DHT22;55682;51.114;5.882;2023-11-21T06:35:08;10.96;85.85
68701;DHT22;55682;51.114;5.882;2023-11-21T06:37:37;10.97;85.97
68701;DHT22;55682;51.114;5.882;2023-11-21T06:40:03;10.99;85.42
68701;DHT22;55682;51.114;5.882;2023-11-21T06:42:30;10.90;85.61
68701;DHT22;55682;51.114;5.882;2023-11-21T06:44:56;10.90;85.95
68701;DHT22;55682;51.114;5.882;2023-11-21T06:47:23;10.89;86.17
68701;DHT22;55682;51.114;5.882;2023-11-21T06:49:51;10.93;85.98
68701;DHT22;55682;51.114;5.882;2023-11-21T06:52:17;10.88;85.80
68701;DHT22;55682;51.114;5.882;2023-11-21T06:54:44;10.87;85.96
68701;DHT22;55682;51.114;5.882;2023-11-21T06:57:11;10.87;86.07
68701;DHT22;55682;51.114;5.882;2023-11-21T06:59:36;10.89;86.13
68701;DHT22;55682;51.114;5.882;2023-11-21T07:02:02;10.93;85.84
68701;DHT22;55682;51.114;5.882;2023-11-21T07:04:28;10.95;86.03
68701;DHT22;55682;51.114;5.882;2023-11-21T07:06:54;10.92;86.00
68701;DHT22;55682;51.114;5.882;2023-11-21T07:09:20;10.90;85.94
68701;DHT22;55682;51.114;5.882;2023-11-21T07:11:49;10.90;86.03
68701;DHT22;55682;51.114;5.882;2023-11-21T07:14:15;10.86;85.90
68701;DHT22;55682;51.114;5.882;2023-11-21T07:16:42;10.81;86.09
68701;DHT22;55682;51.114;5.882;2023-11-21T07:19:08;10.77;86.17
68701;DHT22;55682;51.114;5.882;2023-11-21T07:21:35;10.77;86.36
68701;DHT22;55682;51.114;5.882;2023-11-21T07:24:02;10.78;86.29
68701;DHT22;55682;51.114;5.882;2023-11-21T07:26:27;10.75;86.71
68701;DHT22;55682;51.114;5.882;2023-11-21T07:28:53;10.79;87.06
68701;DHT22;55682;51.114;5.882;2023-11-21T07:31:19;10.85;87.09
68701;DHT22;55682;51.114;5.882;2023-11-21T07:33:46;10.93;86.96
68701;DHT22;55682;51.114;5.882;2023-11-21T07:36:13;10.97;86.84
68701;DHT22;55682;51.114;5.882;2023-11-21T07:38:39;11.00;86.67
68701;DHT22;55682;51.114;5.882;2023-11-21T07:41:05;11.02;86.43
68701;DHT22;55682;51.114;5.882;2023-11-21T07:43:34;11.03;86.25
68701;DHT22;55682;51.114;5.882;2023-11-21T07:46:04;11.09;86.27
68701;DHT22;55682;51.114;5.882;2023-11-21T07:48:33;11.10;86.18
68701;DHT22;55682;51.114;5.882;2023-11-21T07:51:00;11.15;86.07
68701;DHT22;55682;51.114;5.882;2023-11-21T07:53:27;11.19;85.84
68701;DHT22;55682;51.114;5.882;2023-11-21T07:55:54;11.25;85.54
68701;DHT22;55682;51.114;5.882;2023-11-21T07:58:20;11.25;85.41
68701;DHT22;55682;51.114;5.882;2023-11-21T08:00:46;11.29;85.42
68701;DHT22;55682;51.114;5.882;2023-11-21T08:03:16;11.33;85.61
68701;DHT22;55682;51.114;5.882;2023-11-21T08:05:42;11.39;85.64
68701;DHT22;55682;51.114;5.882;2023-11-21T08:08:07;11.43;85.28
68701;DHT22;55682;51.114;5.882;2023-11-21T08:10:33;11.43;85.18
68701;DHT22;55682;51.114;5.882;2023-11-21T08:12:59;11.44;85.34
68701;DHT22;55682;51.114;5.882;2023-11-21T08:15:25;11.49;85.34
68701;DHT22;55682;51.114;5.882;2023-11-21T08:17:50;11.52;85.27
68701;DHT22;55682;51.114;5.882;2023-11-21T08:20:16;11.53;84.84
68701;DHT22;55682;51.114;5.882;2023-11-21T08:22:46;11.54;84.45
68701;DHT22;55682;51.114;5.882;2023-11-21T08:25:13;11.54;84.32
68701;DHT22;55682;51.114;5.882;2023-11-21T08:27:38;11.55;84.85
68701;DHT22;55682;51.114;5.882;2023-11-21T08:30:04;11.64;84.94
68701;DHT22;55682;51.114;5.882;2023-11-21T08:32:30;11.70;84.89
68701;DHT22;55682;51.114;5.882;2023-11-21T08:34:59;11.76;84.71
68701;DHT22;55682;51.114;5.882;2023-11-21T08:37:24;11.83;84.64
68701;DHT22;55682;51.114;5.882;2023-11-21T08:39:53;11.90;84.13
68701;DHT22;55682;51.114;5.882;2023-11-21T08:42:19;11.92;83.58
68701;DHT22;55682;51.114;5.882;2023-11-21T08:44:45;11.92;83.09
68701;DHT22;55682;51.114;5.882;2023-11-21T08:47:11;11.85;83.06
68701;DHT22;55682;51.114;5.882;2023-11-21T08:49:37;11.82;82.86
68701;DHT22;55682;51.114;5.882;2023-11-21T08:52:03;11.72;83.16
68701;DHT22;55682;51.114;5.882;2023-11-21T08:54:31;11.73;83.37
68701;DHT22;55682;51.114;5.882;2023-11-21T08:56:57;11.69;83.90
68701;DHT22;55682;51.114;5.882;2023-11-21T08:59:24;11.72;83.77
68701;DHT22;55682;51.114;5.882;2023-11-21T09:01:50;11.71;83.87
68701;DHT22;55682;51.114;5.882;2023-11-21T09:04:16;11.73;84.19
68701;DHT22;55682;51.114;5.882;2023-11-21T09:06:42;11.76;84.42
68701;DHT22;55682;51.114;5.882;2023-11-21T09:09:07;11.83;84.55
68701;DHT22;55682;51.114;5.882;2023-11-21T09:11:36;11.89;84.44
68701;DHT22;55682;51.114;5.882;2023-11-21T09:14:02;11.90;84.29
68701;DHT22;55682;51.114;5.882;2023-11-21T09:16:31;11.92;83.61
68701;DHT22;55682;51.114;5.882;2023-11-21T09:18:58;11.92;83.62
68701;DHT22;55682;51.114;5.882;2023-11-21T09:21:23;11.96;83.22
68701;DHT22;55682;51.114;5.882;2023-11-21T09:23:51;11.97;83.60
68701;DHT22;55682;51.114;5.882;2023-11-21T09:26:17;12.03;83.49
68701;DHT22;55682;51.114;5.882;2023-11-21T09:28:45;12.12;83.18
68701;DHT22;55682;51.114;5.882;2023-11-21T09:31:13;12.14;83.02
68701;DHT22;55682;51.114;5.882;2023-11-21T09:33:43;12.14;83.14
68701;DHT22;55682;51.114;5.882;2023-11-21T09:36:12;12.16;83.07
68701;DHT22;55682;51.114;5.882;2023-11-21T09:38:39;12.18;83.15
68701;DHT22;55682;51.114;5.882;2023-11-21T09:41:15;12.27;82.85
68701;DHT22;55682;51.114;5.882;2023-11-21T09:43:45;12.18;82.24
68701;DHT22;55682;51.114;5.882;2023-11-21T09:46:13;12.08;82.76
68701;DHT22;55682;51.114;5.882;2023-11-21T09:48:48;12.05;83.23
68701;DHT22;55682;51.114;5.882;2023-11-21T09:51:19;12.10;83.69
68701;DHT22;55682;51.114;5.882;2023-11-21T09:53:49;12.14;83.63
68701;DHT22;55682;51.114;5.882;2023-11-21T09:56:18;12.15;83.53
68701;DHT22;55682;51.114;5.882;2023-11-21T09:58:52;12.21;84.00
68701;DHT22;55682;51.114;5.882;2023-11-21T10:01:19;12.25;83.61
68701;DHT22;55682;51.114;5.882;2023-11-21T10:03:46;12.28;83.61
68701;DHT22;55682;51.114;5.882;2023-11-21T10:06:13;12.28;83.61
68701;DHT22;55682;51.114;5.882;2023-11-21T10:08:42;12.29;83.45
68701;DHT22;55682;51.114;5.882;2023-11-21T10:11:09;12.28;83.11
68701;DHT22;55682;51.114;5.882;2023-11-21T10:13:37;12.25;83.54
68701;DHT22;55682;51.114;5.882;2023-11-21T10:16:07;12.26;83.53
68701;DHT22;55682;51.114;5.882;2023-11-21T10:18:37;12.27;84.15
68701;DHT22;55682;51.114;5.882;2023-11-21T10:21:07;12.31;83.66
68701;DHT22;55682;51.114;5.882;2023-11-21T10:23:34;12.31;83.60
68701;DHT22;55682;51.114;5.882;2023-11-21T10:26:00;12.33;83.24
68701;DHT22;55682;51.114;5.882;2023-11-21T10:28:26;12.35;83.31
68701;DHT22;55682;51.114;5.882;2023-11-21T10:30:52;12.31;83.48
68701;DHT22;55682;51.114;5.882;2023-11-21T10:33:27;12.29;83.68
68701;DHT22;55682;51.114;5.882;2023-11-21T10:35:54;12.31;83.67
68701;DHT22;55682;51.114;5.882;2023-11-21T10:38:21;12.34;83.52
68701;DHT22;55682;51.114;5.882;2023-11-21T10:40:50;12.40;83.94
68701;DHT22;55682;51.114;5.882;2023-11-21T10:43:17;12.41;83.72
68701;DHT22;55682;51.114;5.882;2023-11-21T10:45:43;12.47;83.71
68701;DHT22;55682;51.114;5.882;2023-11-21T10:48:12;12.53;83.74
68701;DHT22;55682;51.114;5.882;2023-11-21T10:50:41;12.63;83.49
68701;DHT22;55682;51.114;5.882;2023-11-21T10:53:07;12.71;83.67
68701;DHT22;55682;51.114;5.882;2023-11-21T10:55:34;12.79;83.39
68701;DHT22;55682;51.114;5.882;2023-11-21T10:58:04;12.85;83.10
68701;DHT22;55682;51.114;5.882;2023-11-21T11:00:32;12.90;83.01
68701;DHT22;55682;51.114;5.882;2023-11-21T11:02:59;12.95;82.91
68701;DHT22;55682;51.114;5.882;2023-11-21T11:05:26;13.03;82.56
68701;DHT22;55682;51.114;5.882;2023-11-21T11:08:04;13.05;82.37
68701;DHT22;55682;51.114;5.882;2023-11-21T11:10:31;13.12;82.21
68701;DHT22;55682;51.114;5.882;2023-11-21T11:12:58;13.20;82.07
68701;DHT22;55682;51.114;5.882;2023-11-21T11:15:25;13.22;82.09
68701;DHT22;55682;51.114;5.882;2023-11-21T11:17:53;13.22;81.79
68701;DHT22;55682;51.114;5.882;2023-11-21T11:20:24;13.20;81.79
68701;DHT22;55682;51.114;5.882;2023-11-21T11:23:15;13.15;81.32
68701;DHT22;55682;51.114;5.882;2023-11-21T11:31:40;12.87;81.59
68701;DHT22;55682;51.114;5.882;2023-11-21T11:36:53;12.78;82.81
68701;DHT22;55682;51.114;5.882;2023-11-21T11:39:28;12.85;82.93
68701;DHT22;55682;51.114;5.882;2023-11-21T11:41:58;12.88;82.67
68701;DHT22;55682;51.114;5.882;2023-11-21T11:44:47;12.95;82.68
68701;DHT22;55682;51.114;5.882;2023-11-21T11:47:31;12.94;82.01
68701;DHT22;55682;51.114;5.882;2023-11-21T11:50:07;12.88;82.21
68701;DHT22;55682;51.114;5.882;2023-11-21T11:52:50;12.88;82.40
68701;DHT22;55682;51.114;5.882;2023-11-21T11:55:19;12.87;82.45
68701;DHT22;55682;51.114;5.882;2023-11-21T11:57:47;12.86;82.91
68701;DHT22;55682;51.114;5.882;2023-11-21T12:02:56;12.99;83.17
68701;DHT22;55682;51.114;5.882;2023-11-21T12:05:25;13.03;83.23
68701;DHT22;55682;51.114;5.882;2023-11-21T12:07:55;13.08;83.32
68701;DHT22;55682;51.114;5.882;2023-11-21T12:10:24;13.14;83.59
68701;DHT22;55682;51.114;5.882;2023-11-21T12:12:54;13.24;83.66
68701;DHT22;55682;51.114;5.882;2023-11-21T12:15:20;13.38;83.36
68701;DHT22;55682;51.114;5.882;2023-11-21T12:17:48;13.50;83.07
68701;DHT22;55682;51.114;5.882;2023-11-21T12:20:18;13.58;82.68
68701;DHT22;55682;51.114;5.882;2023-11-21T12:25:09;13.69;81.79
68701;DHT22;55682;51.114;5.882;2023-11-21T12:27:35;13.75;81.89
68701;DHT22;55682;51.114;5.882;2023-11-21T12:30:00;13.84;81.56
68701;DHT22;55682;51.114;5.882;2023-11-21T12:32:26;13.90;81.31
68701;DHT22;55682;51.114;5.882;2023-11-21T12:34:52;13.96;81.10
68701;DHT22;55682;51.114;5.882;2023-11-21T12:37:18;13.99;80.94
68701;DHT22;55682;51.114;5.882;2023-11-21T12:39:43;14.06;80.81
68701;DHT22;55682;51.114;5.882;2023-11-21T12:42:09;14.09;80.65
68701;DHT22;55682;51.114;5.882;2023-11-21T12:44:35;14.11;80.49
68701;DHT22;55682;51.114;5.882;2023-11-21T12:47:03;14.10;80.49
68701;DHT22;55682;51.114;5.882;2023-11-21T12:49:29;14.10;80.33
68701;DHT22;55682;51.114;5.882;2023-11-21T12:51:54;14.08;80.24
68701;DHT22;55682;51.114;5.882;2023-11-21T12:54:20;13.99;80.13
68701;DHT22;55682;51.114;5.882;2023-11-21T12:56:46;13.86;80.25
68701;DHT22;55682;51.114;5.882;2023-11-21T12:59:14;13.77;80.49
68701;DHT22;55682;51.114;5.882;2023-11-21T13:01:42;13.70;80.57
68701;DHT22;55682;51.114;5.882;2023-11-21T13:04:08;13.65;80.69
68701;DHT22;55682;51.114;5.882;2023-11-21T13:06:36;13.62;80.68
68701;DHT22;55682;51.114;5.882;2023-11-21T13:09:09;13.58;81.06
68701;DHT22;55682;51.114;5.882;2023-11-21T13:11:41;13.52;80.83
68701;DHT22;55682;51.114;5.882;2023-11-21T13:14:07;13.48;81.19
68701;DHT22;55682;51.114;5.882;2023-11-21T13:16:37;13.47;81.27
68701;DHT22;55682;51.114;5.882;2023-11-21T13:19:04;13.46;81.67
68701;DHT22;55682;51.114;5.882;2023-11-21T13:21:30;13.48;81.66
68701;DHT22;55682;51.114;5.882;2023-11-21T13:23:56;13.49;81.66
68701;DHT22;55682;51.114;5.882;2023-11-21T13:26:21;13.49;81.62
68701;DHT22;55682;51.114;5.882;2023-11-21T13:28:48;13.51;81.69
68701;DHT22;55682;51.114;5.882;2023-11-21T13:31:14;13.50;81.46
68701;DHT22;55682;51.114;5.882;2023-11-21T13:33:48;13.44;81.47
68701;DHT22;55682;51.114;5.882;2023-11-21T13:36:24;13.40;81.49
68701;DHT22;55682;51.114;5.882;2023-11-21T13:38:51;13.38;81.43
68701;DHT22;55682;51.114;5.882;2023-11-21T13:41:20;13.32;81.28
68701;DHT22;55682;51.114;5.882;2023-11-21T13:43:48;13.25;81.36
68701;DHT22;55682;51.114;5.882;2023-11-21T13:46:22;13.23;81.62
68701;DHT22;55682;51.114;5.882;2023-11-21T13:48:49;13.16;81.60
68701;DHT22;55682;51.114;5.882;2023-11-21T13:51:24;13.12;82.12
68701;DHT22;55682;51.114;5.882;2023-11-21T13:54:10;13.07;81.99
68701;DHT22;55682;51.114;5.882;2023-11-21T13:56:37;13.07;82.39
68701;DHT22;55682;51.114;5.882;2023-11-21T13:59:04;13.07;82.35
68701;DHT22;55682;51.114;5.882;2023-11-21T14:01:42;13.08;82.40
68701;DHT22;55682;51.114;5.882;2023-11-21T14:04:26;13.03;82.01
68701;DHT22;55682;51.114;5.882;2023-11-21T14:07:10;12.93;82.51
68701;DHT22;55682;51.114;5.882;2023-11-21T14:09:48;12.94;82.77
68701;DHT22;55682;51.114;5.882;2023-11-21T14:12:15;12.94;82.79
68701;DHT22;55682;51.114;5.882;2023-11-21T14:14:41;12.89;82.42
68701;DHT22;55682;51.114;5.882;2023-11-21T14:17:07;12.84;82.87
68701;DHT22;55682;51.114;5.882;2023-11-21T14:19:33;12.85;82.51
68701;DHT22;55682;51.114;5.882;2023-11-21T14:21:59;12.74;82.88
68701;DHT22;55682;51.114;5.882;2023-11-21T14:24:26;12.71;82.93
68701;DHT22;55682;51.114;5.882;2023-11-21T14:26:51;12.65;83.16
68701;DHT22;55682;51.114;5.882;2023-11-21T14:29:19;12.59;83.45
68701;DHT22;55682;51.114;5.882;2023-11-21T14:31:49;12.58;83.53
68701;DHT22;55682;51.114;5.882;2023-11-21T14:34:17;12.51;83.90
68701;DHT22;55682;51.114;5.882;2023-11-21T14:36:42;12.56;84.13
68701;DHT22;55682;51.114;5.882;2023-11-21T14:39:10;12.61;83.87
68701;DHT22;55682;51.114;5.882;2023-11-21T14:41:48;12.63;84.03
68701;DHT22;55682;51.114;5.882;2023-11-21T14:44:14;12.67;83.84
68701;DHT22;55682;51.114;5.882;2023-11-21T14:46:40;12.73;83.75
68701;DHT22;55682;51.114;5.882;2023-11-21T14:49:11;12.73;83.59
68701;DHT22;55682;51.114;5.882;2023-11-21T14:51:53;12.74;83.45
68701;DHT22;55682;51.114;5.882;2023-11-21T14:54:48;12.69;83.68
68701;DHT22;55682;51.114;5.882;2023-11-21T14:57:25;12.70;83.94
68701;DHT22;55682;51.114;5.882;2023-11-21T14:59:52;12.74;83.99
68701;DHT22;55682;51.114;5.882;2023-11-21T15:02:20;12.73;83.73
68701;DHT22;55682;51.114;5.882;2023-11-21T15:04:48;12.73;83.44
68701;DHT22;55682;51.114;5.882;2023-11-21T15:07:17;12.66;83.52
68701;DHT22;55682;51.114;5.882;2023-11-21T15:09:43;12.58;83.65
68701;DHT22;55682;51.114;5.882;2023-11-21T15:12:11;12.47;83.94
68701;DHT22;55682;51.114;5.882;2023-11-21T15:14:45;12.45;84.42
68701;DHT22;55682;51.114;5.882;2023-11-21T15:17:14;12.43;84.50
68701;DHT22;55682;51.114;5.882;2023-11-21T15:19:53;12.41;84.39
68701;DHT22;55682;51.114;5.882;2023-11-21T15:22:19;12.35;84.64
68701;DHT22;55682;51.114;5.882;2023-11-21T15:24:45;12.35;84.88
68701;DHT22;55682;51.114;5.882;2023-11-21T15:27:16;12.34;84.91
68701;DHT22;55682;51.114;5.882;2023-11-21T15:29:43;12.34;85.14
68701;DHT22;55682;51.114;5.882;2023-11-21T15:32:09;12.37;85.06
68701;DHT22;55682;51.114;5.882;2023-11-21T15:34:37;12.44;85.03
68701;DHT22;55682;51.114;5.882;2023-11-21T15:37:04;12.43;84.82
68701;DHT22;55682;51.114;5.882;2023-11-21T15:39:31;12.41;84.78
68701;DHT22;55682;51.114;5.882;2023-11-21T15:41:58;12.36;84.55
68701;DHT22;55682;51.114;5.882;2023-11-21T15:44:24;12.28;84.71
68701;DHT22;55682;51.114;5.882;2023-11-21T15:46:54;12.19;85.04